Bolivar, PA (15923)

12:42 PM EDT on September 04, 2015 (GMT -0400)
Fairfield Township | | Change Station
CLOSE
Current Station
Personal Weather Station
Location: Bolivar, PA
Elevation: 1414 ft
Nearby Weather Stations

Elev 1414 ft 40.31 °N, 79.15 °W | Updated 51 minutes ago

Partly Cloudy
Partly Cloudy
84.0 °F
Feels Like 92 °F
N
3.1
Wind Variable Wind from East
Gusts 4.5 mph

Today
High -- | Low -- °F
--% Chance of Precip.
Yesterday
High -- | Low -- °F
Precip. -- in
6:46 AM 7:44 PM
Waning Gibbous, 58% visible
Pressure 30.12 in
Visibility 6.0 miles
Clouds Few 5000 ft
Heat Index 92 °F
Dew Point 75 °F
Humidity 74%
Rainfall in
Snow Depth Not available.
UV 7 out of 12
Pollen 8.50 out of 12
Air Quality Not available.
Flu Activity Not available.
METAR KLBE 041545Z 27006KT 6SM BR FEW050 27/21 A3012
Pressure 30.12 in
Visibility 6.0 miles
Clouds Few 5000 ft
Heat Index 92 °F
Dew Point 75 °F
Humidity 74%
Rainfall in
Snow Depth Not available.
UV 7 out of 12
Pollen 8.50 out of 12
Air Quality Not available.
Flu Activity Not available.
METAR KLBE 041545Z 27006KT 6SM BR FEW050 27/21 A3012

10-Day Weather Forecast

×

Almanac

Astronomy

Sep. 04, 2015 Rise Set
Actual Time
Civil Twilight
Nautical Twilight
Astronomical Twilight
Moon
Length of Visible Light
Length of Day
Tomorrow will be .
, % of the Moon is Illuminated

Today's Extremes

State Highs State Lows

Community

WunderPhotos

Upload Photos

1,852,226 photos uploaded!

WunderBlogs® & News

Nearby

Air Quality

  Air Quality AQ Index Pollutant
Not available.

Snow Depth

Station Depth Elevation

Earthquake Activity

City Distance Mag. Time & Date
Minimum magnitude displayed is 2.5.

Coastal Water Temperatures

Place Temperature

Stations

Nearby Weather Stations

Station Location Temp. Windchill Dew Point Humidity Wind Precip. Elev Updated Type